sensor_id;sensor_type;location;lat;lon;timestamp;P1;durP1;ratioP1;P2;durP2;ratioP2
5937;SDS011;2994;51.220;4.412;2023-02-01T00:01:38;13.07;;;6.73;;
5937;SDS011;2994;51.220;4.412;2023-02-01T00:04:03;14.70;;;6.60;;
5937;SDS011;2994;51.220;4.412;2023-02-01T00:06:29;13.50;;;7.93;;
5937;SDS011;2994;51.220;4.412;2023-02-01T00:08:55;12.80;;;7.23;;
5937;SDS011;2994;51.220;4.412;2023-02-01T00:11:21;12.13;;;7.30;;
5937;SDS011;2994;51.220;4.412;2023-02-01T00:13:47;11.73;;;7.10;;
5937;SDS011;2994;51.220;4.412;2023-02-01T00:18:43;16.57;;;7.17;;
5937;SDS011;2994;51.220;4.412;2023-02-01T00:21:10;9.50;;;6.90;;
5937;SDS011;2994;51.220;4.412;2023-02-01T00:23:36;9.30;;;6.50;;
5937;SDS011;2994;51.220;4.412;2023-02-01T00:26:04;11.13;;;6.17;;
5937;SDS011;2994;51.220;4.412;2023-02-01T00:28:31;11.53;;;7.30;;
5937;SDS011;2994;51.220;4.412;2023-02-01T00:30:59;23.63;;;7.40;;
5937;SDS011;2994;51.220;4.412;2023-02-01T00:33:27;17.27;;;6.97;;
5937;SDS011;2994;51.220;4.412;2023-02-01T00:35:56;11.50;;;6.93;;
5937;SDS011;2994;51.220;4.412;2023-02-01T00:38:29;14.50;;;7.50;;
5937;SDS011;2994;51.220;4.412;2023-02-01T00:41:01;12.67;;;7.23;;
5937;SDS011;2994;51.220;4.412;2023-02-01T00:43:31;10.53;;;6.80;;
5937;SDS011;2994;51.220;4.412;2023-02-01T00:45:57;13.13;;;7.00;;
5937;SDS011;2994;51.220;4.412;2023-02-01T00:48:23;11.17;;;7.10;;
5937;SDS011;2994;51.220;4.412;2023-02-01T00:50:49;9.43;;;6.07;;
5937;SDS011;2994;51.220;4.412;2023-02-01T00:53:14;14.80;;;8.17;;
5937;SDS011;2994;51.220;4.412;2023-02-01T00:55:40;13.07;;;7.83;;
5937;SDS011;2994;51.220;4.412;2023-02-01T00:58:05;12.93;;;6.73;;
5937;SDS011;2994;51.220;4.412;2023-02-01T01:00:33;15.10;;;6.77;;
5937;SDS011;2994;51.220;4.412;2023-02-01T01:02:59;13.00;;;6.97;;
5937;SDS011;2994;51.220;4.412;2023-02-01T01:05:24;16.43;;;7.77;;
5937;SDS011;2994;51.220;4.412;2023-02-01T01:07:52;14.70;;;7.00;;
5937;SDS011;2994;51.220;4.412;2023-02-01T01:10:18;14.80;;;6.73;;
5937;SDS011;2994;51.220;4.412;2023-02-01T01:12:43;16.70;;;7.10;;
5937;SDS011;2994;51.220;4.412;2023-02-01T01:15:09;15.47;;;6.10;;
5937;SDS011;2994;51.220;4.412;2023-02-01T01:17:34;13.67;;;7.10;;
5937;SDS011;2994;51.220;4.412;2023-02-01T01:20:00;16.70;;;6.77;;
5937;SDS011;2994;51.220;4.412;2023-02-01T01:22:25;10.53;;;6.63;;
5937;SDS011;2994;51.220;4.412;2023-02-01T01:24:51;11.53;;;5.90;;
5937;SDS011;2994;51.220;4.412;2023-02-01T01:27:16;9.77;;;6.20;;
5937;SDS011;2994;51.220;4.412;2023-02-01T01:29:47;9.13;;;5.20;;
5937;SDS011;2994;51.220;4.412;2023-02-01T01:32:13;14.53;;;6.20;;
5937;SDS011;2994;51.220;4.412;2023-02-01T01:34:38;11.73;;;5.40;;
5937;SDS011;2994;51.220;4.412;2023-02-01T01:37:04;12.30;;;5.00;;
5937;SDS011;2994;51.220;4.412;2023-02-01T01:39:29;10.37;;;5.17;;
5937;SDS011;2994;51.220;4.412;2023-02-01T01:41:55;15.03;;;4.90;;
5937;SDS011;2994;51.220;4.412;2023-02-01T01:47:19;17.20;;;5.73;;
5937;SDS011;2994;51.220;4.412;2023-02-01T01:49:45;12.13;;;4.63;;
5937;SDS011;2994;51.220;4.412;2023-02-01T01:52:10;7.30;;;4.37;;
5937;SDS011;2994;51.220;4.412;2023-02-01T01:54:40;11.20;;;5.50;;
5937;SDS011;2994;51.220;4.412;2023-02-01T02:00:13;12.17;;;5.10;;
5937;SDS011;2994;51.220;4.412;2023-02-01T02:02:41;11.80;;;4.57;;
5937;SDS011;2994;51.220;4.412;2023-02-01T02:05:09;9.33;;;4.77;;
5937;SDS011;2994;51.220;4.412;2023-02-01T02:07:37;10.30;;;4.57;;
5937;SDS011;2994;51.220;4.412;2023-02-01T02:10:08;10.43;;;4.87;;
5937;SDS011;2994;51.220;4.412;2023-02-01T02:12:40;10.80;;;5.23;;
5937;SDS011;2994;51.220;4.412;2023-02-01T02:15:07;10.40;;;4.90;;
5937;SDS011;2994;51.220;4.412;2023-02-01T02:17:50;9.27;;;4.20;;
5937;SDS011;2994;51.220;4.412;2023-02-01T02:28:29;7.67;;;5.13;;
5937;SDS011;2994;51.220;4.412;2023-02-01T02:38:58;9.73;;;4.40;;
5937;SDS011;2994;51.220;4.412;2023-02-01T02:42:02;9.30;;;4.07;;
5937;SDS011;2994;51.220;4.412;2023-02-01T02:45:12;7.47;;;5.37;;
5937;SDS011;2994;51.220;4.412;2023-02-01T02:50:51;10.10;;;3.90;;
5937;SDS011;2994;51.220;4.412;2023-02-01T02:53:46;15.23;;;4.70;;
5937;SDS011;2994;51.220;4.412;2023-02-01T02:56:36;9.87;;;4.00;;
5937;SDS011;2994;51.220;4.412;2023-02-01T02:59:22;10.00;;;4.30;;
5937;SDS011;2994;51.220;4.412;2023-02-01T03:02:09;8.03;;;4.30;;
5937;SDS011;2994;51.220;4.412;2023-02-01T03:04:54;12.00;;;4.13;;
5937;SDS011;2994;51.220;4.412;2023-02-01T03:10:07;12.47;;;4.87;;
5937;SDS011;2994;51.220;4.412;2023-02-01T03:12:54;8.60;;;3.73;;
5937;SDS011;2994;51.220;4.412;2023-02-01T03:15:20;10.50;;;4.80;;
5937;SDS011;2994;51.220;4.412;2023-02-01T03:18:01;10.17;;;5.23;;
5937;SDS011;2994;51.220;4.412;2023-02-01T03:20:29;16.20;;;6.00;;
5937;SDS011;2994;51.220;4.412;2023-02-01T03:22:56;11.50;;;5.50;;
5937;SDS011;2994;51.220;4.412;2023-02-01T03:25:29;12.90;;;4.53;;
5937;SDS011;2994;51.220;4.412;2023-02-01T03:28:01;15.63;;;5.97;;
5937;SDS011;2994;51.220;4.412;2023-02-01T03:30:37;17.20;;;5.50;;
5937;SDS011;2994;51.220;4.412;2023-02-01T03:33:08;12.40;;;5.80;;
5937;SDS011;2994;51.220;4.412;2023-02-01T03:35:54;11.87;;;5.47;;
5937;SDS011;2994;51.220;4.412;2023-02-01T03:41:25;13.57;;;6.00;;
5937;SDS011;2994;51.220;4.412;2023-02-01T03:44:16;10.60;;;6.00;;
5937;SDS011;2994;51.220;4.412;2023-02-01T03:49:43;12.77;;;5.30;;
5937;SDS011;2994;51.220;4.412;2023-02-01T03:52:10;15.80;;;5.53;;
5937;SDS011;2994;51.220;4.412;2023-02-01T03:54:39;12.67;;;6.00;;
5937;SDS011;2994;51.220;4.412;2023-02-01T03:57:07;10.40;;;6.33;;
5937;SDS011;2994;51.220;4.412;2023-02-01T03:59:39;11.53;;;4.73;;
5937;SDS011;2994;51.220;4.412;2023-02-01T04:02:06;10.47;;;5.93;;
5937;SDS011;2994;51.220;4.412;2023-02-01T04:04:31;14.63;;;6.30;;
5937;SDS011;2994;51.220;4.412;2023-02-01T04:06:58;10.10;;;4.73;;
5937;SDS011;2994;51.220;4.412;2023-02-01T04:09:24;16.63;;;6.40;;
5937;SDS011;2994;51.220;4.412;2023-02-01T04:11:49;16.17;;;5.87;;
5937;SDS011;2994;51.220;4.412;2023-02-01T04:14:14;11.23;;;5.83;;
5937;SDS011;2994;51.220;4.412;2023-02-01T04:16:40;10.43;;;5.70;;
5937;SDS011;2994;51.220;4.412;2023-02-01T04:19:06;10.93;;;5.70;;
5937;SDS011;2994;51.220;4.412;2023-02-01T04:21:31;9.20;;;4.97;;
5937;SDS011;2994;51.220;4.412;2023-02-01T04:23:57;7.10;;;5.13;;
5937;SDS011;2994;51.220;4.412;2023-02-01T04:26:22;10.97;;;5.60;;
5937;SDS011;2994;51.220;4.412;2023-02-01T04:28:48;12.73;;;6.00;;
5937;SDS011;2994;51.220;4.412;2023-02-01T04:31:14;8.63;;;4.37;;
5937;SDS011;2994;51.220;4.412;2023-02-01T04:33:40;13.07;;;6.07;;
5937;SDS011;2994;51.220;4.412;2023-02-01T04:36:06;12.83;;;5.63;;
5937;SDS011;2994;51.220;4.412;2023-02-01T04:38:31;10.90;;;4.80;;
5937;SDS011;2994;51.220;4.412;2023-02-01T04:40:57;16.77;;;6.03;;
5937;SDS011;2994;51.220;4.412;2023-02-01T04:43:24;14.37;;;5.50;;
5937;SDS011;2994;51.220;4.412;2023-02-01T04:45:50;12.40;;;5.70;;
5937;SDS011;2994;51.220;4.412;2023-02-01T04:48:19;10.60;;;6.23;;
5937;SDS011;2994;51.220;4.412;2023-02-01T04:50:46;12.83;;;5.10;;
5937;SDS011;2994;51.220;4.412;2023-02-01T04:53:13;13.67;;;5.67;;
5937;SDS011;2994;51.220;4.412;2023-02-01T04:55:40;10.80;;;5.70;;
5937;SDS011;2994;51.220;4.412;2023-02-01T04:58:05;11.97;;;6.03;;
5937;SDS011;2994;51.220;4.412;2023-02-01T05:00:31;9.03;;;4.67;;
5937;SDS011;2994;51.220;4.412;2023-02-01T05:02:56;10.60;;;5.20;;
5937;SDS011;2994;51.220;4.412;2023-02-01T05:05:22;18.37;;;6.20;;
5937;SDS011;2994;51.220;4.412;2023-02-01T05:07:47;11.70;;;5.97;;
5937;SDS011;2994;51.220;4.412;2023-02-01T05:10:13;10.77;;;5.27;;
5937;SDS011;2994;51.220;4.412;2023-02-01T05:12:38;8.93;;;4.80;;
5937;SDS011;2994;51.220;4.412;2023-02-01T05:15:22;10.63;;;5.50;;
5937;SDS011;2994;51.220;4.412;2023-02-01T05:17:48;10.10;;;5.47;;
5937;SDS011;2994;51.220;4.412;2023-02-01T05:20:13;12.93;;;5.80;;
5937;SDS011;2994;51.220;4.412;2023-02-01T05:22:39;15.20;;;6.00;;
5937;SDS011;2994;51.220;4.412;2023-02-01T05:25:06;11.30;;;5.17;;
5937;SDS011;2994;51.220;4.412;2023-02-01T05:27:32;14.30;;;5.60;;
5937;SDS011;2994;51.220;4.412;2023-02-01T05:29:57;11.10;;;5.40;;
5937;SDS011;2994;51.220;4.412;2023-02-01T05:32:23;14.10;;;6.30;;
5937;SDS011;2994;51.220;4.412;2023-02-01T05:34:48;16.33;;;5.27;;
5937;SDS011;2994;51.220;4.412;2023-02-01T05:37:14;20.67;;;8.27;;
5937;SDS011;2994;51.220;4.412;2023-02-01T05:39:39;9.90;;;5.43;;
5937;SDS011;2994;51.220;4.412;2023-02-01T05:42:05;17.00;;;6.10;;
5937;SDS011;2994;51.220;4.412;2023-02-01T05:44:30;12.43;;;4.93;;
5937;SDS011;2994;51.220;4.412;2023-02-01T05:46:56;11.90;;;7.50;;
5937;SDS011;2994;51.220;4.412;2023-02-01T05:49:21;18.53;;;5.50;;
5937;SDS011;2994;51.220;4.412;2023-02-01T05:51:47;14.53;;;5.90;;
5937;SDS011;2994;51.220;4.412;2023-02-01T05:54:12;10.70;;;5.30;;
5937;SDS011;2994;51.220;4.412;2023-02-01T05:56:37;18.43;;;6.63;;
5937;SDS011;2994;51.220;4.412;2023-02-01T05:59:03;12.83;;;5.83;;
5937;SDS011;2994;51.220;4.412;2023-02-01T06:01:28;14.60;;;6.13;;
5937;SDS011;2994;51.220;4.412;2023-02-01T06:03:54;12.17;;;5.50;;
5937;SDS011;2994;51.220;4.412;2023-02-01T06:06:19;10.67;;;5.77;;
5937;SDS011;2994;51.220;4.412;2023-02-01T06:08:45;8.97;;;5.70;;
5937;SDS011;2994;51.220;4.412;2023-02-01T06:11:11;11.37;;;5.57;;
5937;SDS011;2994;51.220;4.412;2023-02-01T06:13:38;13.77;;;5.60;;
5937;SDS011;2994;51.220;4.412;2023-02-01T06:16:03;10.87;;;6.87;;
5937;SDS011;2994;51.220;4.412;2023-02-01T06:18:31;8.53;;;5.10;;
5937;SDS011;2994;51.220;4.412;2023-02-01T06:20:58;7.60;;;5.00;;
5937;SDS011;2994;51.220;4.412;2023-02-01T06:23:25;14.83;;;6.17;;
5937;SDS011;2994;51.220;4.412;2023-02-01T06:25:51;11.77;;;5.70;;
5937;SDS011;2994;51.220;4.412;2023-02-01T06:28:23;9.77;;;5.60;;
5937;SDS011;2994;51.220;4.412;2023-02-01T06:30:48;13.97;;;6.17;;
5937;SDS011;2994;51.220;4.412;2023-02-01T06:33:14;11.87;;;5.93;;
5937;SDS011;2994;51.220;4.412;2023-02-01T06:35:40;14.10;;;4.93;;
5937;SDS011;2994;51.220;4.412;2023-02-01T06:38:07;10.80;;;5.53;;
5937;SDS011;2994;51.220;4.412;2023-02-01T06:40:32;15.40;;;5.50;;
5937;SDS011;2994;51.220;4.412;2023-02-01T06:42:58;13.73;;;6.27;;
5937;SDS011;2994;51.220;4.412;2023-02-01T06:45:25;12.00;;;6.40;;
5937;SDS011;2994;51.220;4.412;2023-02-01T06:47:50;15.47;;;6.13;;
5937;SDS011;2994;51.220;4.412;2023-02-01T06:50:16;9.87;;;6.20;;
5937;SDS011;2994;51.220;4.412;2023-02-01T06:52:41;11.30;;;5.23;;
5937;SDS011;2994;51.220;4.412;2023-02-01T06:55:07;16.43;;;6.00;;
5937;SDS011;2994;51.220;4.412;2023-02-01T06:57:33;13.63;;;4.73;;
5937;SDS011;2994;51.220;4.412;2023-02-01T07:00:00;11.40;;;5.37;;
5937;SDS011;2994;51.220;4.412;2023-02-01T07:02:28;18.50;;;6.13;;
5937;SDS011;2994;51.220;4.412;2023-02-01T07:04:53;11.50;;;6.30;;
5937;SDS011;2994;51.220;4.412;2023-02-01T07:07:19;14.17;;;4.90;;
5937;SDS011;2994;51.220;4.412;2023-02-01T07:09:45;9.43;;;5.03;;
5937;SDS011;2994;51.220;4.412;2023-02-01T07:12:10;9.80;;;6.73;;
5937;SDS011;2994;51.220;4.412;2023-02-01T07:14:36;16.60;;;6.10;;
5937;SDS011;2994;51.220;4.412;2023-02-01T07:17:02;9.63;;;5.07;;
5937;SDS011;2994;51.220;4.412;2023-02-01T07:19:27;9.40;;;5.90;;
5937;SDS011;2994;51.220;4.412;2023-02-01T07:21:52;9.50;;;5.73;;
5937;SDS011;2994;51.220;4.412;2023-02-01T07:24:18;10.50;;;5.23;;
5937;SDS011;2994;51.220;4.412;2023-02-01T07:26:43;13.23;;;5.77;;
5937;SDS011;2994;51.220;4.412;2023-02-01T07:29:09;12.87;;;5.77;;
5937;SDS011;2994;51.220;4.412;2023-02-01T07:31:34;14.73;;;5.93;;
5937;SDS011;2994;51.220;4.412;2023-02-01T07:34:00;8.63;;;5.73;;
5937;SDS011;2994;51.220;4.412;2023-02-01T07:36:27;16.70;;;6.07;;
5937;SDS011;2994;51.220;4.412;2023-02-01T07:38:52;17.77;;;6.70;;
5937;SDS011;2994;51.220;4.412;2023-02-01T07:41:18;12.47;;;5.40;;
5937;SDS011;2994;51.220;4.412;2023-02-01T07:43:43;11.57;;;5.40;;
5937;SDS011;2994;51.220;4.412;2023-02-01T07:46:09;16.40;;;7.33;;
5937;SDS011;2994;51.220;4.412;2023-02-01T07:48:36;13.33;;;5.63;;
5937;SDS011;2994;51.220;4.412;2023-02-01T07:51:05;9.00;;;5.07;;
5937;SDS011;2994;51.220;4.412;2023-02-01T07:53:34;13.77;;;5.83;;
5937;SDS011;2994;51.220;4.412;2023-02-01T07:55:59;14.87;;;5.80;;
5937;SDS011;2994;51.220;4.412;2023-02-01T07:58:25;13.70;;;6.13;;
5937;SDS011;2994;51.220;4.412;2023-02-01T08:00:51;12.33;;;5.43;;
5937;SDS011;2994;51.220;4.412;2023-02-01T08:03:36;14.40;;;6.00;;
5937;SDS011;2994;51.220;4.412;2023-02-01T08:06:01;19.83;;;6.17;;
5937;SDS011;2994;51.220;4.412;2023-02-01T08:08:27;14.73;;;6.17;;
5937;SDS011;2994;51.220;4.412;2023-02-01T08:10:59;16.47;;;6.67;;
5937;SDS011;2994;51.220;4.412;2023-02-01T08:13:25;14.33;;;7.07;;
5937;SDS011;2994;51.220;4.412;2023-02-01T08:15:50;19.33;;;7.17;;
5937;SDS011;2994;51.220;4.412;2023-02-01T08:18:16;10.23;;;5.97;;
5937;SDS011;2994;51.220;4.412;2023-02-01T08:20:43;12.63;;;6.27;;
5937;SDS011;2994;51.220;4.412;2023-02-01T08:23:13;12.23;;;6.07;;
5937;SDS011;2994;51.220;4.412;2023-02-01T08:25:39;15.53;;;6.40;;
5937;SDS011;2994;51.220;4.412;2023-02-01T08:28:05;11.13;;;6.53;;
5937;SDS011;2994;51.220;4.412;2023-02-01T08:30:31;9.43;;;5.67;;
5937;SDS011;2994;51.220;4.412;2023-02-01T08:32:57;17.10;;;6.80;;
5937;SDS011;2994;51.220;4.412;2023-02-01T08:35:23;12.37;;;6.07;;
5937;SDS011;2994;51.220;4.412;2023-02-01T08:37:51;12.23;;;6.07;;
5937;SDS011;2994;51.220;4.412;2023-02-01T08:40:17;9.47;;;5.67;;
5937;SDS011;2994;51.220;4.412;2023-02-01T08:42:42;18.50;;;7.43;;
5937;SDS011;2994;51.220;4.412;2023-02-01T08:45:18;15.30;;;6.43;;
5937;SDS011;2994;51.220;4.412;2023-02-01T08:47:44;11.17;;;7.40;;
5937;SDS011;2994;51.220;4.412;2023-02-01T08:50:12;12.60;;;5.20;;
5937;SDS011;2994;51.220;4.412;2023-02-01T08:52:38;16.93;;;6.43;;
5937;SDS011;2994;51.220;4.412;2023-02-01T08:55:04;13.33;;;6.67;;
5937;SDS011;2994;51.220;4.412;2023-02-01T08:57:31;11.90;;;5.87;;
5937;SDS011;2994;51.220;4.412;2023-02-01T08:59:56;16.53;;;6.20;;
5937;SDS011;2994;51.220;4.412;2023-02-01T09:02:22;13.70;;;5.80;;
5937;SDS011;2994;51.220;4.412;2023-02-01T09:04:47;10.30;;;6.03;;
5937;SDS011;2994;51.220;4.412;2023-02-01T09:07:13;12.20;;;7.43;;
5937;SDS011;2994;51.220;4.412;2023-02-01T09:09:38;25.77;;;7.20;;
5937;SDS011;2994;51.220;4.412;2023-02-01T09:12:04;22.77;;;8.03;;
5937;SDS011;2994;51.220;4.412;2023-02-01T09:14:30;16.40;;;6.50;;
5937;SDS011;2994;51.220;4.412;2023-02-01T09:16:55;10.27;;;6.57;;
5937;SDS011;2994;51.220;4.412;2023-02-01T09:19:21;15.97;;;7.17;;
5937;SDS011;2994;51.220;4.412;2023-02-01T09:21:47;10.70;;;6.57;;
5937;SDS011;2994;51.220;4.412;2023-02-01T09:24:12;12.97;;;6.13;;
5937;SDS011;2994;51.220;4.412;2023-02-01T09:26:38;13.10;;;6.03;;
5937;SDS011;2994;51.220;4.412;2023-02-01T09:29:03;13.13;;;6.63;;
5937;SDS011;2994;51.220;4.412;2023-02-01T09:31:34;7.80;;;5.50;;
5937;SDS011;2994;51.220;4.412;2023-02-01T09:34:00;11.50;;;5.87;;
5937;SDS011;2994;51.220;4.412;2023-02-01T09:36:26;16.33;;;6.10;;
5937;SDS011;2994;51.220;4.412;2023-02-01T09:38:52;18.20;;;6.50;;
5937;SDS011;2994;51.220;4.412;2023-02-01T09:46:54;11.03;;;6.30;;
5937;SDS011;2994;51.220;4.412;2023-02-01T09:49:28;13.53;;;5.73;;
5937;SDS011;2994;51.220;4.412;2023-02-01T09:52:02;16.37;;;6.70;;
5937;SDS011;2994;51.220;4.412;2023-02-01T09:57:06;16.73;;;7.00;;
5937;SDS011;2994;51.220;4.412;2023-02-01T09:59:38;17.53;;;6.87;;
5937;SDS011;2994;51.220;4.412;2023-02-01T10:02:28;16.23;;;7.83;;
5937;SDS011;2994;51.220;4.412;2023-02-01T10:04:57;11.17;;;5.33;;
5937;SDS011;2994;51.220;4.412;2023-02-01T10:07:34;19.23;;;7.20;;
5937;SDS011;2994;51.220;4.412;2023-02-01T10:10:26;11.87;;;6.13;;
5937;SDS011;2994;51.220;4.412;2023-02-01T10:12:59;10.83;;;4.90;;
5937;SDS011;2994;51.220;4.412;2023-02-01T10:15:49;12.97;;;5.67;;
5937;SDS011;2994;51.220;4.412;2023-02-01T10:21:07;11.60;;;4.20;;
5937;SDS011;2994;51.220;4.412;2023-02-01T10:24:02;13.97;;;6.30;;
5937;SDS011;2994;51.220;4.412;2023-02-01T10:26:53;13.93;;;5.10;;
5937;SDS011;2994;51.220;4.412;2023-02-01T10:29:26;11.30;;;4.90;;
5937;SDS011;2994;51.220;4.412;2023-02-01T10:31:57;8.60;;;3.90;;
5937;SDS011;2994;51.220;4.412;2023-02-01T10:34:27;10.83;;;4.60;;
5937;SDS011;2994;51.220;4.412;2023-02-01T10:37:12;8.23;;;3.43;;
5937;SDS011;2994;51.220;4.412;2023-02-01T10:39:43;9.97;;;3.67;;
5937;SDS011;2994;51.220;4.412;2023-02-01T10:42:10;7.00;;;3.27;;
5937;SDS011;2994;51.220;4.412;2023-02-01T10:44:35;9.00;;;3.30;;
5937;SDS011;2994;51.220;4.412;2023-02-01T10:47:08;8.40;;;3.73;;
5937;SDS011;2994;51.220;4.412;2023-02-01T10:49:38;7.50;;;4.03;;
5937;SDS011;2994;51.220;4.412;2023-02-01T10:52:20;6.90;;;3.23;;
5937;SDS011;2994;51.220;4.412;2023-02-01T10:54:47;11.30;;;2.80;;
5937;SDS011;2994;51.220;4.412;2023-02-01T10:57:20;8.80;;;3.50;;
5937;SDS011;2994;51.220;4.412;2023-02-01T10:59:51;5.67;;;3.93;;
5937;SDS011;2994;51.220;4.412;2023-02-01T11:02:29;5.80;;;3.50;;
5937;SDS011;2994;51.220;4.412;2023-02-01T11:05:03;11.10;;;3.50;;
5937;SDS011;2994;51.220;4.412;2023-02-01T11:07:33;10.50;;;3.77;;
5937;SDS011;2994;51.220;4.412;2023-02-01T11:10:00;7.20;;;3.00;;
5937;SDS011;2994;51.220;4.412;2023-02-01T11:12:28;8.43;;;4.17;;
5937;SDS011;2994;51.220;4.412;2023-02-01T11:15:03;7.10;;;3.20;;
5937;SDS011;2994;51.220;4.412;2023-02-01T11:17:40;5.60;;;2.43;;
5937;SDS011;2994;51.220;4.412;2023-02-01T11:20:19;8.17;;;2.70;;
5937;SDS011;2994;51.220;4.412;2023-02-01T11:22:56;5.40;;;2.37;;
5937;SDS011;2994;51.220;4.412;2023-02-01T11:25:22;9.63;;;3.27;;
5937;SDS011;2994;51.220;4.412;2023-02-01T11:27:49;12.23;;;2.80;;
5937;SDS011;2994;51.220;4.412;2023-02-01T11:30:16;5.37;;;2.83;;
5937;SDS011;2994;51.220;4.412;2023-02-01T11:32:48;7.07;;;2.87;;
5937;SDS011;2994;51.220;4.412;2023-02-01T11:35:18;6.63;;;2.60;;
5937;SDS011;2994;51.220;4.412;2023-02-01T11:37:45;14.97;;;3.40;;
5937;SDS011;2994;51.220;4.412;2023-02-01T11:45:29;5.00;;;2.90;;
5937;SDS011;2994;51.220;4.412;2023-02-01T11:47:59;6.17;;;2.50;;
5937;SDS011;2994;51.220;4.412;2023-02-01T11:58:42;7.70;;;3.93;;
5937;SDS011;2994;51.220;4.412;2023-02-01T12:01:25;7.80;;;2.90;;
5937;SDS011;2994;51.220;4.412;2023-02-01T12:15:29;5.80;;;2.83;;
5937;SDS011;2994;51.220;4.412;2023-02-01T12:26:53;6.87;;;2.60;;
5937;SDS011;2994;51.220;4.412;2023-02-01T12:45:51;7.30;;;3.80;;
5937;SDS011;2994;51.220;4.412;2023-02-01T12:51:27;7.00;;;2.60;;
5937;SDS011;2994;51.220;4.412;2023-02-01T12:56:47;9.30;;;4.07;;
5937;SDS011;2994;51.220;4.412;2023-02-01T13:01:59;10.30;;;3.53;;
5937;SDS011;2994;51.220;4.412;2023-02-01T13:04:36;4.33;;;3.23;;
5937;SDS011;2994;51.220;4.412;2023-02-01T13:07:10;4.43;;;2.40;;
5937;SDS011;2994;51.220;4.412;2023-02-01T13:12:38;6.60;;;2.50;;
5937;SDS011;2994;51.220;4.412;2023-02-01T13:17:42;12.80;;;3.83;;
5937;SDS011;2994;51.220;4.412;2023-02-01T13:22:52;10.13;;;3.37;;
5937;SDS011;2994;51.220;4.412;2023-02-01T13:28:04;9.63;;;2.70;;
5937;SDS011;2994;51.220;4.412;2023-02-01T13:30:49;7.70;;;3.10;;
5937;SDS011;2994;51.220;4.412;2023-02-01T13:41:41;5.73;;;2.80;;
5937;SDS011;2994;51.220;4.412;2023-02-01T13:44:17;12.63;;;4.27;;
5937;SDS011;2994;51.220;4.412;2023-02-01T13:46:49;8.73;;;3.20;;
5937;SDS011;2994;51.220;4.412;2023-02-01T13:49:20;10.90;;;3.20;;
5937;SDS011;2994;51.220;4.412;2023-02-01T13:51:49;8.07;;;4.23;;
5937;SDS011;2994;51.220;4.412;2023-02-01T13:57:04;9.43;;;3.47;;
5937;SDS011;2994;51.220;4.412;2023-02-01T14:05:11;7.63;;;2.70;;
5937;SDS011;2994;51.220;4.412;2023-02-01T14:07:36;12.30;;;4.17;;
5937;SDS011;2994;51.220;4.412;2023-02-01T14:21:20;9.93;;;2.80;;
5937;SDS011;2994;51.220;4.412;2023-02-01T14:26:48;8.37;;;2.80;;
5937;SDS011;2994;51.220;4.412;2023-02-01T14:31:52;7.20;;;3.00;;
5937;SDS011;2994;51.220;4.412;2023-02-01T14:34:24;9.73;;;3.80;;
5937;SDS011;2994;51.220;4.412;2023-02-01T14:36:58;8.03;;;3.60;;
5937;SDS011;2994;51.220;4.412;2023-02-01T14:39:31;12.57;;;2.90;;
5937;SDS011;2994;51.220;4.412;2023-02-01T14:42:00;8.73;;;3.90;;
5937;SDS011;2994;51.220;4.412;2023-02-01T14:44:33;18.07;;;3.60;;
5937;SDS011;2994;51.220;4.412;2023-02-01T14:49:41;11.17;;;3.10;;
5937;SDS011;2994;51.220;4.412;2023-02-01T14:52:14;6.30;;;4.73;;
5937;SDS011;2994;51.220;4.412;2023-02-01T14:54:45;5.03;;;2.80;;
5937;SDS011;2994;51.220;4.412;2023-02-01T14:57:15;7.77;;;3.70;;
5937;SDS011;2994;51.220;4.412;2023-02-01T14:59:44;8.83;;;3.77;;
5937;SDS011;2994;51.220;4.412;2023-02-01T15:02:43;9.20;;;3.50;;
5937;SDS011;2994;51.220;4.412;2023-02-01T15:05:12;7.33;;;3.20;;
5937;SDS011;2994;51.220;4.412;2023-02-01T15:07:57;14.57;;;3.80;;
5937;SDS011;2994;51.220;4.412;2023-02-01T15:10:27;6.10;;;3.40;;
5937;SDS011;2994;51.220;4.412;2023-02-01T15:12:55;8.37;;;3.40;;
5937;SDS011;2994;51.220;4.412;2023-02-01T15:15:22;15.73;;;4.00;;
5937;SDS011;2994;51.220;4.412;2023-02-01T15:17:51;28.57;;;5.07;;
5937;SDS011;2994;51.220;4.412;2023-02-01T15:20:25;7.23;;;3.20;;
5937;SDS011;2994;51.220;4.412;2023-02-01T15:23:14;9.30;;;3.90;;
5937;SDS011;2994;51.220;4.412;2023-02-01T15:25:44;8.80;;;3.37;;
5937;SDS011;2994;51.220;4.412;2023-02-01T15:28:12;10.63;;;4.10;;
5937;SDS011;2994;51.220;4.412;2023-02-01T15:30:59;10.80;;;4.67;;
5937;SDS011;2994;51.220;4.412;2023-02-01T15:33:26;10.73;;;3.83;;
5937;SDS011;2994;51.220;4.412;2023-02-01T15:38:32;9.23;;;4.70;;
5937;SDS011;2994;51.220;4.412;2023-02-01T15:46:12;12.43;;;4.67;;
5937;SDS011;2994;51.220;4.412;2023-02-01T15:48:52;9.60;;;4.20;;
5937;SDS011;2994;51.220;4.412;2023-02-01T15:51:20;9.60;;;4.83;;
5937;SDS011;2994;51.220;4.412;2023-02-01T15:53:48;10.43;;;4.70;;
5937;SDS011;2994;51.220;4.412;2023-02-01T15:56:22;7.93;;;3.83;;
5937;SDS011;2994;51.220;4.412;2023-02-01T15:59:02;5.97;;;3.60;;
5937;SDS011;2994;51.220;4.412;2023-02-01T16:01:34;7.30;;;3.80;;
5937;SDS011;2994;51.220;4.412;2023-02-01T16:06:51;12.27;;;3.80;;
5937;SDS011;2994;51.220;4.412;2023-02-01T16:09:22;8.63;;;3.47;;
5937;SDS011;2994;51.220;4.412;2023-02-01T16:11:57;9.63;;;4.00;;
5937;SDS011;2994;51.220;4.412;2023-02-01T16:14:24;12.93;;;6.07;;
5937;SDS011;2994;51.220;4.412;2023-02-01T16:16:50;11.03;;;4.33;;
5937;SDS011;2994;51.220;4.412;2023-02-01T16:19:17;11.07;;;4.47;;
5937;SDS011;2994;51.220;4.412;2023-02-01T16:21:42;13.63;;;4.17;;
5937;SDS011;2994;51.220;4.412;2023-02-01T16:24:08;12.77;;;4.00;;
5937;SDS011;2994;51.220;4.412;2023-02-01T16:26:34;13.20;;;3.70;;
5937;SDS011;2994;51.220;4.412;2023-02-01T16:28:59;7.57;;;3.77;;
5937;SDS011;2994;51.220;4.412;2023-02-01T16:31:29;18.73;;;4.40;;
5937;SDS011;2994;51.220;4.412;2023-02-01T16:33:56;13.20;;;4.90;;
5937;SDS011;2994;51.220;4.412;2023-02-01T16:36:22;11.20;;;3.73;;
5937;SDS011;2994;51.220;4.412;2023-02-01T16:38:49;10.27;;;3.93;;
5937;SDS011;2994;51.220;4.412;2023-02-01T16:41:16;6.80;;;4.30;;
5937;SDS011;2994;51.220;4.412;2023-02-01T16:43:43;6.67;;;3.90;;
5937;SDS011;2994;51.220;4.412;2023-02-01T16:46:16;8.87;;;4.60;;
5937;SDS011;2994;51.220;4.412;2023-02-01T16:48:51;9.03;;;4.63;;
5937;SDS011;2994;51.220;4.412;2023-02-01T16:51:19;6.70;;;3.93;;
5937;SDS011;2994;51.220;4.412;2023-02-01T16:53:45;7.20;;;4.10;;
5937;SDS011;2994;51.220;4.412;2023-02-01T16:56:24;9.57;;;4.90;;
5937;SDS011;2994;51.220;4.412;2023-02-01T16:58:54;10.63;;;4.10;;
5937;SDS011;2994;51.220;4.412;2023-02-01T17:01:20;11.53;;;4.60;;
5937;SDS011;2994;51.220;4.412;2023-02-01T17:03:46;10.47;;;4.43;;
5937;SDS011;2994;51.220;4.412;2023-02-01T17:06:15;7.03;;;3.00;;
5937;SDS011;2994;51.220;4.412;2023-02-01T17:08:43;5.40;;;3.87;;
5937;SDS011;2994;51.220;4.412;2023-02-01T17:11:12;10.63;;;5.50;;
5937;SDS011;2994;51.220;4.412;2023-02-01T17:13:38;13.27;;;5.73;;
5937;SDS011;2994;51.220;4.412;2023-02-01T17:16:09;7.23;;;4.53;;
5937;SDS011;2994;51.220;4.412;2023-02-01T17:18:40;8.43;;;3.80;;
5937;SDS011;2994;51.220;4.412;2023-02-01T17:21:06;10.43;;;5.00;;
5937;SDS011;2994;51.220;4.412;2023-02-01T17:23:33;13.03;;;5.50;;
5937;SDS011;2994;51.220;4.412;2023-02-01T17:25:59;11.63;;;5.27;;
5937;SDS011;2994;51.220;4.412;2023-02-01T17:28:25;8.17;;;5.10;;
5937;SDS011;2994;51.220;4.412;2023-02-01T17:30:50;15.43;;;7.37;;
5937;SDS011;2994;51.220;4.412;2023-02-01T17:33:26;13.00;;;6.40;;
5937;SDS011;2994;51.220;4.412;2023-02-01T17:35:55;12.97;;;7.07;;
5937;SDS011;2994;51.220;4.412;2023-02-01T17:38:21;9.87;;;6.67;;
5937;SDS011;2994;51.220;4.412;2023-02-01T17:40:47;11.33;;;5.87;;
5937;SDS011;2994;51.220;4.412;2023-02-01T17:43:13;12.17;;;6.80;;
5937;SDS011;2994;51.220;4.412;2023-02-01T17:45:48;13.30;;;7.37;;
5937;SDS011;2994;51.220;4.412;2023-02-01T17:48:17;9.17;;;5.20;;
5937;SDS011;2994;51.220;4.412;2023-02-01T17:50:44;12.80;;;4.93;;
5937;SDS011;2994;51.220;4.412;2023-02-01T17:53:11;14.43;;;5.53;;
5937;SDS011;2994;51.220;4.412;2023-02-01T17:55:40;17.67;;;5.70;;
5937;SDS011;2994;51.220;4.412;2023-02-01T17:58:08;9.77;;;4.80;;
5937;SDS011;2994;51.220;4.412;2023-02-01T18:00:38;16.93;;;6.60;;
5937;SDS011;2994;51.220;4.412;2023-02-01T18:03:04;12.07;;;4.90;;